Time;durP1;ratioP1;P1;durP2;ratioP2;P2;SDS_P1;SDS_P2;PMS_P1;PMS_P2;Temp;Humidity;BMP_temperature;BMP_pressure;BME280_temperature;BME280_humidity;BME280_pressure;Samples;Min_cycle;Max_cycle;Signal;HPM_P1;HPM_P2
2021/09/17 00:00:12;;;;;;;928.50;828.80;;;;;;;;;;5012184;28;20402;-78
2021/09/17 00:02:38;;;;;;;930.85;830.75;;;;;;;;;;5011757;28;20033;-77
2021/09/17 00:05:04;;;;;;;924.90;825.28;;;;;;;;;;5012766;28;20064;-77
2021/09/17 00:07:30;;;;;;;927.10;827.33;;;;;;;;;;5007080;28;20045;-77
2021/09/17 00:09:56;;;;;;;924.47;825.05;;;;;;;;;;5009570;28;20026;-77
2021/09/17 00:12:22;;;;;;;922.65;823.10;;;;;;;;;;5000943;28;20069;-77
2021/09/17 00:14:48;;;;;;;924.95;825.30;;;;;;;;;;4993236;28;20066;-78
2021/09/17 00:17:14;;;;;;;926.47;827.00;;;;;;;;;;5011530;28;20037;-78
2021/09/17 00:19:40;;;;;;;923.58;824.15;;;;;;;;;;5015608;28;20026;-77
2021/09/17 00:22:06;;;;;;;920.85;821.60;;;;;;;;;;5009394;28;20478;-78
2021/09/17 00:24:32;;;;;;;922.08;822.78;;;;;;;;;;5014528;28;20113;-78
2021/09/17 00:26:59;;;;;;;923.22;823.60;;;;;;;;;;5008089;28;20056;-78
2021/09/17 00:29:25;;;;;;;914.75;815.47;;;;;;;;;;5013421;28;20037;-77
2021/09/17 00:31:51;;;;;;;920.65;821.28;;;;;;;;;;5006965;28;20029;-77
2021/09/17 00:34:17;;;;;;;911.50;812.55;;;;;;;;;;5014028;28;20033;-77
2021/09/17 00:36:43;;;;;;;910.85;811.53;;;;;;;;;;5014348;28;20072;-77
2021/09/17 00:39:12;;;;;;;903.90;804.92;;;;;;;;;;5001094;28;20034;-78
2021/09/17 00:41:39;;;;;;;902.53;803.30;;;;;;;;;;4991758;28;20027;-78
2021/09/17 00:44:05;;;;;;;902.35;803.20;;;;;;;;;;5011912;28;20030;-78
2021/09/17 00:46:31;;;;;;;902.60;803.70;;;;;;;;;;5015010;28;20584;-78
2021/09/17 00:48:57;;;;;;;898.95;799.95;;;;;;;;;;5013791;28;20033;-78
2021/09/17 00:51:23;;;;;;;901.72;802.20;;;;;;;;;;5006974;28;20026;-78
2021/09/17 00:53:49;;;;;;;892.03;792.63;;;;;;;;;;5013386;28;20117;-78
2021/09/17 00:56:15;;;;;;;897.38;798.35;;;;;;;;;;5015477;28;20046;-78
2021/09/17 00:58:41;;;;;;;902.20;802.78;;;;;;;;;;5015668;28;20053;-78
2021/09/17 01:01:07;;;;;;;894.58;795.35;;;;;;;;;;5014460;28;20030;-78
2021/09/17 01:03:33;;;;;;;909.00;808.83;;;;;;;;;;5012431;28;20048;-78
2021/09/17 01:06:01;;;;;;;899.15;799.42;;;;;;;;;;5009932;28;20721;-79
2021/09/17 01:08:27;;;;;;;901.40;801.78;;;;;;;;;;5013329;28;20022;-78
2021/09/17 01:10:54;;;;;;;898.75;797.30;;;;;;;;;;5007619;28;20026;-78
2021/09/17 01:13:21;;;;;;;901.95;800.50;;;;;;;;;;5004594;28;20040;-78
2021/09/17 01:15:47;;;;;;;897.58;788.95;;;;;;;;;;4996008;28;20179;-78
2021/09/17 01:18:13;;;;;;;895.85;786.75;;;;;;;;;;5002979;28;20132;-78
2021/09/17 01:20:39;;;;;;;898.22;794.05;;;;;;;;;;5013795;28;20037;-78
2021/09/17 01:23:05;;;;;;;893.35;787.13;;;;;;;;;;5011289;28;20117;-78
2021/09/17 01:25:31;;;;;;;895.33;783.17;;;;;;;;;;5010352;28;20046;-77
2021/09/17 01:27:57;;;;;;;896.33;786.05;;;;;;;;;;5022483;28;20037;-78
2021/09/17 01:30:24;;;;;;;893.45;783.22;;;;;;;;;;5004527;28;20128;-78
2021/09/17 01:32:50;;;;;;;897.88;785.28;;;;;;;;;;5014585;28;20458;-78
2021/09/17 01:35:17;;;;;;;898.20;780.38;;;;;;;;;;5016911;28;20033;-79
2021/09/17 01:37:44;;;;;;;894.80;787.20;;;;;;;;;;5002038;28;20497;-78
2021/09/17 01:40:10;;;;;;;891.28;777.38;;;;;;;;;;5024452;28;20023;-78
2021/09/17 01:42:36;;;;;;;890.20;779.25;;;;;;;;;;5003920;28;20520;-78
2021/09/17 01:45:02;;;;;;;894.25;784.45;;;;;;;;;;5014114;28;20379;-78
2021/09/17 01:47:28;;;;;;;892.58;785.22;;;;;;;;;;5015170;28;20038;-79
2021/09/17 01:49:54;;;;;;;895.60;794.55;;;;;;;;;;5009644;28;20068;-78
2021/09/17 01:52:20;;;;;;;896.28;793.65;;;;;;;;;;5017527;28;20068;-78
2021/09/17 01:54:46;;;;;;;889.58;778.75;;;;;;;;;;5013195;28;20026;-78
2021/09/17 01:57:12;;;;;;;887.70;775.17;;;;;;;;;;5012912;28;20021;-78
2021/09/17 01:59:38;;;;;;;890.75;781.13;;;;;;;;;;5015305;28;20026;-79
2021/09/17 02:02:04;;;;;;;893.42;789.95;;;;;;;;;;5014592;28;20036;-78
2021/09/17 02:04:30;;;;;;;892.90;786.50;;;;;;;;;;4997990;28;20045;-78
2021/09/17 02:06:57;;;;;;;890.78;789.80;;;;;;;;;;4999581;28;20026;-78
2021/09/17 02:09:23;;;;;;;887.88;782.10;;;;;;;;;;5013079;28;20026;-78
2021/09/17 02:11:49;;;;;;;889.85;782.83;;;;;;;;;;5009774;28;20315;-78
2021/09/17 02:14:15;;;;;;;891.65;785.08;;;;;;;;;;5015292;28;20104;-78
2021/09/17 02:16:41;;;;;;;896.72;795.35;;;;;;;;;;5009673;28;20034;-78
2021/09/17 02:19:07;;;;;;;893.85;794.03;;;;;;;;;;5013860;28;20052;-78
2021/09/17 02:21:34;;;;;;;898.58;799.28;;;;;;;;;;5003902;28;20061;-78
2021/09/17 02:24:00;;;;;;;901.17;801.80;;;;;;;;;;5011502;28;20053;-79
2021/09/17 02:26:26;;;;;;;911.13;811.40;;;;;;;;;;5011322;28;20053;-78
2021/09/17 02:28:52;;;;;;;917.15;817.38;;;;;;;;;;5014125;28;20042;-78
2021/09/17 02:31:18;;;;;;;906.60;806.85;;;;;;;;;;5014570;28;20061;-78
2021/09/17 02:33:44;;;;;;;908.63;808.78;;;;;;;;;;5015996;28;20040;-78
2021/09/17 02:36:10;;;;;;;905.35;805.80;;;;;;;;;;5005375;28;20034;-78
2021/09/17 02:38:36;;;;;;;909.78;810.03;;;;;;;;;;5012083;28;20022;-78
2021/09/17 02:41:02;;;;;;;900.42;801.13;;;;;;;;;;5003800;28;20025;-78
2021/09/17 02:43:29;;;;;;;907.83;808.25;;;;;;;;;;5013640;28;20036;-78
2021/09/17 02:45:55;;;;;;;913.20;813.08;;;;;;;;;;5026998;28;20129;-78
2021/09/17 02:48:21;;;;;;;913.88;813.97;;;;;;;;;;5014883;28;20362;-78
2021/09/17 02:50:47;;;;;;;908.05;808.50;;;;;;;;;;5017034;28;20029;-78
2021/09/17 02:53:13;;;;;;;912.22;812.42;;;;;;;;;;4996693;28;20129;-78
2021/09/17 02:55:39;;;;;;;901.50;802.38;;;;;;;;;;5007003;28;20501;-78
2021/09/17 02:58:05;;;;;;;919.42;819.22;;;;;;;;;;5008551;28;20501;-78
2021/09/17 03:00:31;;;;;;;919.17;819.05;;;;;;;;;;5012038;28;20132;-78
2021/09/17 03:02:58;;;;;;;910.55;811.05;;;;;;;;;;5011247;28;20022;-78
2021/09/17 03:05:24;;;;;;;907.70;808.42;;;;;;;;;;4996205;28;20042;-78
2021/09/17 03:07:50;;;;;;;910.33;810.63;;;;;;;;;;5006342;28;20026;-79
2021/09/17 03:10:16;;;;;;;914.30;814.60;;;;;;;;;;5008686;28;20462;-78
2021/09/17 03:12:42;;;;;;;921.90;821.83;;;;;;;;;;5011608;28;20053;-78
2021/09/17 03:15:08;;;;;;;914.20;814.45;;;;;;;;;;5010772;28;20036;-79
2021/09/17 03:17:34;;;;;;;916.15;816.40;;;;;;;;;;4998503;28;20034;-78
2021/09/17 03:20:00;;;;;;;908.13;808.65;;;;;;;;;;5012356;28;20022;-78
2021/09/17 03:22:26;;;;;;;917.58;817.72;;;;;;;;;;5003310;28;20087;-78
2021/09/17 03:24:52;;;;;;;919.53;819.47;;;;;;;;;;5001693;28;20022;-78
2021/09/17 03:27:18;;;;;;;924.35;824.03;;;;;;;;;;5005450;28;20101;-78
2021/09/17 03:29:44;;;;;;;915.38;815.63;;;;;;;;;;5005422;28;20514;-78
2021/09/17 03:32:10;;;;;;;914.67;815.00;;;;;;;;;;5000295;28;20037;-79
2021/09/17 03:34:36;;;;;;;920.30;819.55;;;;;;;;;;5003309;28;20616;-79
2021/09/17 03:37:02;;;;;;;922.40;822.30;;;;;;;;;;4986234;28;20105;-78
2021/09/17 03:39:29;;;;;;;915.33;815.40;;;;;;;;;;4993785;28;20028;-78
2021/09/17 03:41:54;;;;;;;905.63;806.55;;;;;;;;;;4994542;28;20034;-78
2021/09/17 03:44:21;;;;;;;917.30;817.60;;;;;;;;;;5002473;28;20037;-78
2021/09/17 03:46:47;;;;;;;917.58;817.83;;;;;;;;;;4995590;28;20096;-78
2021/09/17 03:49:14;;;;;;;917.90;818.40;;;;;;;;;;5003734;28;20034;-78
2021/09/17 03:51:40;;;;;;;927.25;827.38;;;;;;;;;;5009045;28;20048;-79
2021/09/17 03:54:06;;;;;;;925.33;825.50;;;;;;;;;;5007594;28;20474;-78
2021/09/17 03:56:32;;;;;;;927.35;827.45;;;;;;;;;;5006040;28;20026;-79
2021/09/17 03:58:58;;;;;;;920.25;820.50;;;;;;;;;;4999203;28;20036;-78
2021/09/17 04:01:24;;;;;;;922.30;822.80;;;;;;;;;;5003061;28;20038;-78
2021/09/17 04:03:50;;;;;;;924.58;824.72;;;;;;;;;;5010396;28;20033;-78
2021/09/17 04:06:16;;;;;;;928.22;828.15;;;;;;;;;;5009826;28;20030;-78
2021/09/17 04:08:43;;;;;;;928.75;828.78;;;;;;;;;;5026926;28;20032;-78
2021/09/17 04:11:09;;;;;;;936.22;835.65;;;;;;;;;;5005729;28;20034;-78
2021/09/17 04:13:35;;;;;;;925.08;825.25;;;;;;;;;;5010406;28;20238;-78
2021/09/17 04:16:01;;;;;;;930.85;830.97;;;;;;;;;;5002052;28;20084;-78
2021/09/17 04:18:27;;;;;;;934.88;834.47;;;;;;;;;;5013336;28;20161;-78
2021/09/17 04:20:53;;;;;;;925.22;825.38;;;;;;;;;;4997531;28;20088;-78
2021/09/17 04:23:19;;;;;;;919.15;819.33;;;;;;;;;;5002270;28;20191;-79
2021/09/17 04:25:45;;;;;;;925.92;825.83;;;;;;;;;;5005325;28;20037;-78
2021/09/17 04:28:11;;;;;;;925.25;825.35;;;;;;;;;;5000840;28;20034;-78
2021/09/17 04:30:37;;;;;;;926.80;826.95;;;;;;;;;;5002443;28;20030;-78
2021/09/17 04:33:03;;;;;;;935.92;835.58;;;;;;;;;;5008121;28;20052;-78
2021/09/17 04:35:29;;;;;;;928.47;828.58;;;;;;;;;;5000323;28;20037;-79
2021/09/17 04:37:59;;;;;;;922.85;823.35;;;;;;;;;;5004348;28;20029;-78
2021/09/17 04:40:25;;;;;;;;;;;;;;;;;;5005519;28;20034;-78
2021/09/17 04:42:51;;;;;;;900.63;801.55;;;;;;;;;;5000607;28;20011;-78
2021/09/17 04:45:17;;;;;;;916.28;816.83;;;;;;;;;;5006363;28;20029;-78
2021/09/17 04:47:44;;;;;;;922.65;823.03;;;;;;;;;;5008534;28;20033;-78
2021/09/17 04:50:10;;;;;;;926.83;827.20;;;;;;;;;;5008159;28;20030;-78
2021/09/17 04:52:37;;;;;;;934.88;834.88;;;;;;;;;;5011056;28;20029;-78
2021/09/17 04:55:03;;;;;;;939.83;839.55;;;;;;;;;;5005506;28;20025;-78
2021/09/17 04:57:30;;;;;;;936.75;836.72;;;;;;;;;;5004978;28;20022;-78
2021/09/17 04:59:56;;;;;;;935.38;835.63;;;;;;;;;;5002014;28;20382;-78
2021/09/17 05:02:22;;;;;;;938.75;838.83;;;;;;;;;;5003579;28;20378;-78
2021/09/17 05:04:48;;;;;;;938.10;838.13;;;;;;;;;;4999618;28;20453;-78
2021/09/17 05:07:14;;;;;;;934.17;834.60;;;;;;;;;;4999649;28;20053;-78
2021/09/17 05:09:40;;;;;;;934.65;834.95;;;;;;;;;;5008430;28;20494;-78
2021/09/17 05:12:07;;;;;;;937.92;838.17;;;;;;;;;;5007077;28;20148;-78
2021/09/17 05:14:33;;;;;;;946.13;846.08;;;;;;;;;;5006867;28;20033;-78
2021/09/17 05:16:59;;;;;;;939.25;839.35;;;;;;;;;;4995285;28;20058;-79
2021/09/17 05:19:25;;;;;;;933.90;834.50;;;;;;;;;;5005851;28;20036;-78
2021/09/17 05:21:52;;;;;;;931.95;832.55;;;;;;;;;;4999531;28;20065;-78
2021/09/17 05:24:18;;;;;;;946.92;846.65;;;;;;;;;;5005984;28;20035;-78
2021/09/17 05:26:44;;;;;;;931.65;832.22;;;;;;;;;;5020608;28;20034;-78
2021/09/17 05:29:10;;;;;;;936.55;836.83;;;;;;;;;;5007295;28;20026;-78
2021/09/17 05:31:36;;;;;;;942.33;842.50;;;;;;;;;;5005422;28;20094;-78
2021/09/17 05:34:02;;;;;;;947.45;847.35;;;;;;;;;;5000223;28;20049;-78
2021/09/17 05:36:28;;;;;;;946.10;844.88;;;;;;;;;;5005728;28;20022;-78
2021/09/17 05:38:54;;;;;;;940.88;841.03;;;;;;;;;;5004972;28;20022;-78
2021/09/17 05:41:20;;;;;;;955.22;854.67;;;;;;;;;;5005433;28;20473;-78
2021/09/17 05:43:46;;;;;;;946.85;846.75;;;;;;;;;;5003569;28;20085;-78
2021/09/17 05:46:12;;;;;;;948.17;847.90;;;;;;;;;;4999965;28;20061;-78
2021/09/17 05:48:39;;;;;;;940.83;841.08;;;;;;;;;;5005097;28;20053;-78
2021/09/17 05:51:05;;;;;;;939.50;839.30;;;;;;;;;;5000217;28;20080;-78
2021/09/17 05:53:31;;;;;;;941.13;841.42;;;;;;;;;;5003868;28;20034;-79
2021/09/17 05:55:57;;;;;;;942.50;842.47;;;;;;;;;;5005239;28;20697;-78
2021/09/17 05:58:27;;;;;;;945.35;845.13;;;;;;;;;;5010681;28;20077;-78
2021/09/17 06:00:53;;;;;;;;;;;;;;;;;;5006060;28;20029;-78
2021/09/17 06:03:19;;;;;;;919.75;819.92;;;;;;;;;;5024694;28;20130;-78
2021/09/17 06:05:45;;;;;;;938.53;838.63;;;;;;;;;;4997586;28;20041;-78
2021/09/17 06:08:11;;;;;;;945.08;845.03;;;;;;;;;;5001467;28;20036;-78
2021/09/17 06:10:37;;;;;;;952.25;851.70;;;;;;;;;;5001676;28;20513;-78
2021/09/17 06:13:03;;;;;;;955.65;855.08;;;;;;;;;;4988692;28;20073;-78
2021/09/17 06:15:29;;;;;;;951.42;851.13;;;;;;;;;;5002250;28;20029;-78
2021/09/17 06:17:55;;;;;;;958.47;858.00;;;;;;;;;;5008230;28;20513;-78
2021/09/17 06:20:21;;;;;;;958.78;858.03;;;;;;;;;;5010324;28;20065;-78
2021/09/17 06:22:53;;;;;;;959.72;859.33;;;;;;;;;;5016339;28;20053;-78
2021/09/17 06:25:20;;;;;;;975.67;874.35;;;;;;;;;;4999272;28;20076;-78
2021/09/17 06:27:46;;;;;;;972.88;871.78;;;;;;;;;;5010239;28;20101;-78
2021/09/17 06:30:12;;;;;;;974.38;873.25;;;;;;;;;;5008773;28;20046;-78
2021/09/17 06:32:38;;;;;;;970.47;869.42;;;;;;;;;;5012326;28;20022;-78
2021/09/17 06:35:05;;;;;;;976.53;875.60;;;;;;;;;;4997190;28;20117;-78
2021/09/17 06:37:31;;;;;;;973.83;873.13;;;;;;;;;;4993332;28;20030;-78
2021/09/17 06:39:57;;;;;;;980.72;879.60;;;;;;;;;;5006574;28;20026;-78
2021/09/17 06:42:23;;;;;;;987.05;885.58;;;;;;;;;;5003881;28;20096;-78
2021/09/17 06:44:49;;;;;;;978.95;877.95;;;;;;;;;;4997600;28;20117;-78
2021/09/17 06:47:15;;;;;;;980.03;879.25;;;;;;;;;;5007699;28;20661;-78
2021/09/17 06:49:41;;;;;;;976.15;875.35;;;;;;;;;;5007694;28;20041;-78
2021/09/17 06:52:07;;;;;;;983.65;881.95;;;;;;;;;;5000714;28;20031;-78
2021/09/17 06:54:33;;;;;;;987.75;886.22;;;;;;;;;;5001454;28;20025;-78
2021/09/17 06:56:59;;;;;;;989.67;888.00;;;;;;;;;;5008040;28;20472;-78
2021/09/17 06:59:25;;;;;;;981.45;880.45;;;;;;;;;;5009442;28;20057;-78
2021/09/17 07:01:51;;;;;;;988.15;886.97;;;;;;;;;;5010184;28;20034;-78
2021/09/17 07:04:17;;;;;;;988.03;886.80;;;;;;;;;;5009138;28;20031;-78
2021/09/17 07:06:43;;;;;;;990.50;888.95;;;;;;;;;;5024452;28;20423;-79
2021/09/17 07:09:09;;;;;;;989.72;888.45;;;;;;;;;;5023684;28;20108;-78
2021/09/17 07:11:35;;;;;;;990.45;889.15;;;;;;;;;;5017269;28;20117;-79
2021/09/17 07:14:02;;;;;;;1000.15;898.47;;;;;;;;;;5017473;28;20189;-78
2021/09/17 07:16:28;;;;;;;992.63;891.28;;;;;;;;;;5011664;28;20037;-78
2021/09/17 07:18:54;;;;;;;999.78;898.08;;;;;;;;;;5006091;28;20023;-78
2021/09/17 07:21:20;;;;;;;998.33;896.80;;;;;;;;;;5010951;28;20090;-78
2021/09/17 07:23:46;;;;;;;993.92;892.55;;;;;;;;;;5013165;28;20037;-78
2021/09/17 07:26:12;;;;;;;991.47;890.08;;;;;;;;;;5017940;28;20029;-75
2021/09/17 07:28:38;;;;;;;1002.30;900.25;;;;;;;;;;5016426;28;20018;-78
2021/09/17 07:31:05;;;;;;;998.20;896.80;;;;;;;;;;5016112;28;20053;-78
2021/09/17 07:33:31;;;;;;;998.80;897.35;;;;;;;;;;5002813;28;20065;-78
2021/09/17 07:35:57;;;;;;;1000.00;898.10;;;;;;;;;;5020068;28;20030;-78
2021/09/17 07:38:23;;;;;;;1004.70;902.90;;;;;;;;;;5011981;28;20030;-78
2021/09/17 07:40:49;;;;;;;1002.58;900.92;;;;;;;;;;5007623;28;20026;-79
2021/09/17 07:43:15;;;;;;;1001.60;900.17;;;;;;;;;;5003574;28;20026;-78
2021/09/17 07:45:41;;;;;;;1008.05;906.28;;;;;;;;;;5012785;28;20125;-78
2021/09/17 07:48:07;;;;;;;1011.63;909.63;;;;;;;;;;5008763;28;20795;-78
2021/09/17 07:50:33;;;;;;;1013.72;911.28;;;;;;;;;;5016665;28;20036;-78
2021/09/17 07:52:59;;;;;;;1008.88;906.92;;;;;;;;;;5016732;28;20600;-77
2021/09/17 07:55:25;;;;;;;1010.20;908.17;;;;;;;;;;5007202;28;20440;-78
2021/09/17 07:57:51;;;;;;;1019.13;916.83;;;;;;;;;;5005670;28;20038;-78
2021/09/17 08:00:17;;;;;;;1010.20;908.30;;;;;;;;;;5015047;28;20032;-77
2021/09/17 08:02:44;;;;;;;1019.00;916.70;;;;;;;;;;5022105;28;20040;-78
2021/09/17 08:05:11;;;;;;;1026.85;924.33;;;;;;;;;;5019861;28;20034;-78
2021/09/17 08:07:37;;;;;;;1025.38;923.10;;;;;;;;;;5012172;28;20061;-77
2021/09/17 08:10:04;;;;;;;1030.95;928.25;;;;;;;;;;5010177;28;20029;-78
2021/09/17 08:12:30;;;;;;;1028.78;925.03;;;;;;;;;;5005523;28;20046;-77
2021/09/17 08:14:56;;;;;;;1033.93;930.58;;;;;;;;;;5005295;28;20032;-77
2021/09/17 08:17:23;;;;;;;1036.63;933.80;;;;;;;;;;5010165;28;20065;-77
2021/09/17 08:19:49;;;;;;;1033.53;930.92;;;;;;;;;;5009322;28;20434;-77
2021/09/17 08:22:15;;;;;;;1031.65;928.92;;;;;;;;;;5004517;28;20478;-77
2021/09/17 08:24:41;;;;;;;1032.50;929.80;;;;;;;;;;5002633;28;20194;-77
2021/09/17 08:27:08;;;;;;;1043.40;939.75;;;;;;;;;;5002883;28;20069;-78
2021/09/17 08:29:34;;;;;;;1040.13;937.08;;;;;;;;;;5007327;28;20349;-77
2021/09/17 08:32:01;;;;;;;1040.72;937.67;;;;;;;;;;5007151;28;20092;-77
2021/09/17 08:34:27;;;;;;;1043.80;939.83;;;;;;;;;;4999013;28;20038;-77
2021/09/17 08:36:53;;;;;;;1044.10;941.17;;;;;;;;;;4994141;28;20363;-77
2021/09/17 08:39:20;;;;;;;1045.20;942.00;;;;;;;;;;5002640;28;20022;-78
2021/09/17 08:41:46;;;;;;;1056.28;952.70;;;;;;;;;;4998136;28;20054;-78
2021/09/17 08:44:13;;;;;;;1059.75;956.17;;;;;;;;;;5006761;28;20748;-78
2021/09/17 08:46:41;;;;;;;1067.68;963.60;;;;;;;;;;5009657;28;20344;-78
2021/09/17 08:49:07;;;;;;;1066.22;962.33;;;;;;;;;;5010082;28;20037;-78
2021/09/17 08:51:33;;;;;;;1072.18;968.10;;;;;;;;;;4994856;28;20117;-79
2021/09/17 08:54:02;;;;;;;1073.35;969.03;;;;;;;;;;4990933;28;20025;-78
2021/09/17 08:56:28;;;;;;;1080.53;976.17;;;;;;;;;;4999615;28;20450;-78
2021/09/17 08:58:55;;;;;;;1083.95;979.35;;;;;;;;;;4992544;28;20088;-79
2021/09/17 09:01:25;;;;;;;1079.45;975.22;;;;;;;;;;5002974;28;20049;-78
2021/09/17 09:03:52;;;;;;;1088.78;984.00;;;;;;;;;;5005297;28;20033;-78
2021/09/17 09:06:19;;;;;;;1086.20;981.72;;;;;;;;;;5005691;28;20482;-79
2021/09/17 09:08:46;;;;;;;1097.13;991.85;;;;;;;;;;5007130;28;20045;-80
2021/09/17 09:11:22;;;;;;;1087.90;983.22;;;;;;;;;;5008602;28;20481;-79
2021/09/17 09:14:04;;;;;;;1079.70;975.55;;;;;;;;;;5008009;28;20080;-79
2021/09/17 09:16:30;;;;;;;1079.43;975.28;;;;;;;;;;5008551;28;20030;-78
2021/09/17 09:18:58;;;;;;;1086.57;981.80;;;;;;;;;;5007410;28;20429;-80
2021/09/17 09:21:26;;;;;;;1080.13;976.15;;;;;;;;;;5001902;28;20037;-79
2021/09/17 09:24:13;;;;;;;1074.38;970.13;;;;;;;;;;5011066;28;20033;-79
2021/09/17 09:26:39;;;;;;;1076.40;972.45;;;;;;;;;;4991003;28;20068;-79
2021/09/17 09:29:05;;;;;;;1078.55;974.45;;;;;;;;;;5008992;28;20266;-79
2021/09/17 09:31:43;;;;;;;1083.13;978.90;;;;;;;;;;5008664;28;20041;-79
2021/09/17 09:34:10;;;;;;;1086.40;982.00;;;;;;;;;;5008446;28;20073;-79
2021/09/17 09:36:36;;;;;;;1085.93;981.65;;;;;;;;;;5008198;28;20417;-79
2021/09/17 09:39:04;;;;;;;1096.55;991.72;;;;;;;;;;5006667;28;20021;-79
2021/09/17 09:41:32;;;;;;;1092.28;987.55;;;;;;;;;;5006515;28;20030;-80
2021/09/17 09:44:04;;;;;;;1096.20;991.20;;;;;;;;;;5006016;28;20022;-79
2021/09/17 09:46:30;;;;;;;1092.90;987.33;;;;;;;;;;5006977;28;20056;-79
2021/09/17 09:49:02;;;;;;;1091.38;986.83;;;;;;;;;;5005416;28;20076;-79
2021/09/17 09:51:29;;;;;;;1099.43;992.10;;;;;;;;;;4996881;28;20588;-78
2021/09/17 09:53:57;;;;;;;1106.55;998.33;;;;;;;;;;4986761;28;20116;-80
2021/09/17 09:56:24;;;;;;;1113.88;999.90;;;;;;;;;;5024389;28;20038;-78
2021/09/17 09:58:50;;;;;;;1112.40;999.90;;;;;;;;;;5004520;28;20132;-79
2021/09/17 10:01:21;;;;;;;1121.22;999.90;;;;;;;;;;4999114;28;20011;-79
2021/09/17 10:03:47;;;;;;;1116.18;999.90;;;;;;;;;;5039403;28;20215;-79
2021/09/17 10:06:14;;;;;;;1126.20;999.90;;;;;;;;;;5006304;28;20034;-78
2021/09/17 10:08:41;;;;;;;1133.93;999.90;;;;;;;;;;5006227;28;20075;-78
2021/09/17 10:11:10;;;;;;;1136.57;999.90;;;;;;;;;;5005252;28;20399;-78
2021/09/17 10:13:37;;;;;;;1130.25;999.90;;;;;;;;;;5014605;28;20072;-78
2021/09/17 10:16:04;;;;;;;1135.53;999.90;;;;;;;;;;5025455;28;20512;-78
2021/09/17 10:18:31;;;;;;;1136.13;999.90;;;;;;;;;;5025538;28;20128;-79
2021/09/17 10:20:57;;;;;;;1146.75;999.90;;;;;;;;;;5007050;28;20521;-80
2021/09/17 10:23:26;;;;;;;1152.40;999.90;;;;;;;;;;5007424;28;20042;-79
2021/09/17 10:26:02;;;;;;;1154.43;999.90;;;;;;;;;;5005991;28;20025;-78
2021/09/17 10:28:29;;;;;;;1156.13;999.90;;;;;;;;;;4995766;28;20032;-79
2021/09/17 10:31:09;;;;;;;1154.93;999.90;;;;;;;;;;5006134;28;20482;-77
2021/09/17 10:33:37;;;;;;;1156.85;999.90;;;;;;;;;;5003414;28;20030;-79
2021/09/17 10:36:03;;;;;;;1156.10;999.90;;;;;;;;;;4996209;28;20053;-79
2021/09/17 10:38:31;;;;;;;1158.57;999.90;;;;;;;;;;4993637;28;20060;-77
2021/09/17 10:41:02;;;;;;;1162.20;999.90;;;;;;;;;;5002830;28;20022;-77
2021/09/17 10:43:29;;;;;;;1173.53;999.90;;;;;;;;;;5005072;28;20040;-78
2021/09/17 10:45:57;;;;;;;1166.97;999.90;;;;;;;;;;4998344;28;20084;-77
2021/09/17 10:48:25;;;;;;;1160.47;999.90;;;;;;;;;;5000717;28;20133;-77
2021/09/17 10:50:53;;;;;;;1155.78;999.90;;;;;;;;;;5001048;28;20112;-78
2021/09/17 10:53:44;;;;;;;1156.88;999.90;;;;;;;;;;5013305;28;20022;-77
2021/09/17 10:56:14;;;;;;;1155.47;999.90;;;;;;;;;;4992638;28;20034;-77
2021/09/17 10:58:40;;;;;;;;;;;;;;;;;;5006511;28;20018;-77
2021/09/17 11:01:07;;;;;;;1133.03;999.90;;;;;;;;;;4989841;28;19971;-77
2021/09/17 11:03:55;;;;;;;1138.28;999.90;;;;;;;;;;4994306;28;20069;-78
2021/09/17 11:06:27;;;;;;;1129.60;999.90;;;;;;;;;;4996385;28;20041;-78
2021/09/17 11:09:13;;;;;;;1134.68;999.90;;;;;;;;;;5002354;28;20254;-78
2021/09/17 11:11:41;;;;;;;1134.40;999.90;;;;;;;;;;5007539;28;20104;-78
2021/09/17 11:14:21;;;;;;;1140.63;999.90;;;;;;;;;;5003505;28;20031;-78
2021/09/17 11:16:52;;;;;;;1135.88;999.90;;;;;;;;;;5013717;28;20084;-77
2021/09/17 11:19:19;;;;;;;1132.95;999.90;;;;;;;;;;5011897;28;20049;-77
2021/09/17 11:21:46;;;;;;;1138.53;999.90;;;;;;;;;;5009540;28;20054;-79
2021/09/17 11:24:16;;;;;;;1140.95;999.90;;;;;;;;;;5004430;28;20029;-78
2021/09/17 11:26:42;;;;;;;;;;;;;;;;;;5016902;28;20057;-78
2021/09/17 11:29:09;;;;;;;1131.95;999.90;;;;;;;;;;4990631;28;20364;-78
2021/09/17 11:31:36;;;;;;;1147.43;999.90;;;;;;;;;;5007087;28;20029;-78
2021/09/17 11:34:02;;;;;;;1155.35;999.90;;;;;;;;;;4999621;28;20030;-79
2021/09/17 11:36:39;;;;;;;1162.43;999.90;;;;;;;;;;4997756;28;20571;-80
2021/09/17 11:39:15;;;;;;;1163.72;999.90;;;;;;;;;;5010954;28;20029;-79
2021/09/17 11:41:42;;;;;;;1172.97;999.90;;;;;;;;;;5003246;28;20186;-79
2021/09/17 11:44:09;;;;;;;1173.53;999.90;;;;;;;;;;4999794;28;20092;-79
2021/09/17 11:46:36;;;;;;;1174.03;999.90;;;;;;;;;;5004718;28;20308;-80
2021/09/17 11:49:02;;;;;;;1188.00;999.90;;;;;;;;;;5003958;28;20057;-79
2021/09/17 11:51:28;;;;;;;1194.82;999.90;;;;;;;;;;5002005;28;20037;-78
2021/09/17 11:53:55;;;;;;;1209.53;999.90;;;;;;;;;;5008624;28;20029;-79
2021/09/17 11:56:21;;;;;;;1224.75;999.90;;;;;;;;;;5003448;28;20030;-78
2021/09/17 11:58:48;;;;;;;1258.60;999.90;;;;;;;;;;5002043;28;20018;-80
2021/09/17 12:01:18;;;;;;;1281.28;999.90;;;;;;;;;;5001720;28;20109;-79
2021/09/17 12:03:44;;;;;;;1289.13;999.90;;;;;;;;;;4996577;28;20693;-80
2021/09/17 12:06:11;;;;;;;1302.97;999.90;;;;;;;;;;5002823;28;20026;-80
2021/09/17 12:08:38;;;;;;;1316.10;999.90;;;;;;;;;;5009087;28;20402;-80
2021/09/17 12:11:04;;;;;;;1310.78;999.90;;;;;;;;;;5005357;28;20442;-80
2021/09/17 12:13:31;;;;;;;1306.72;999.90;;;;;;;;;;5008101;28;20041;-78
2021/09/17 12:15:59;;;;;;;1313.50;999.90;;;;;;;;;;5001526;28;20034;-80
2021/09/17 12:18:29;;;;;;;1291.57;999.90;;;;;;;;;;5002972;28;20122;-78
2021/09/17 12:20:56;;;;;;;1294.88;999.90;;;;;;;;;;5002419;28;20026;-80
2021/09/17 12:23:44;;;;;;;1280.50;999.90;;;;;;;;;;5002712;28;21567;-79
2021/09/17 12:26:18;;;;;;;1279.70;999.90;;;;;;;;;;4998438;28;20031;-79
2021/09/17 12:28:51;;;;;;;1275.45;999.90;;;;;;;;;;5008029;28;20055;-80
2021/09/17 12:31:31;;;;;;;1272.63;999.90;;;;;;;;;;5002541;28;20053;-79
2021/09/17 12:34:04;;;;;;;1265.55;999.90;;;;;;;;;;5004997;28;20030;-79
2021/09/17 12:36:30;;;;;;;1264.38;999.90;;;;;;;;;;5000811;28;20348;-79
2021/09/17 12:39:06;;;;;;;1257.72;999.90;;;;;;;;;;5015884;28;20505;-78
2021/09/17 12:41:32;;;;;;;1254.82;999.90;;;;;;;;;;4997566;28;20311;-79
2021/09/17 12:44:06;;;;;;;1254.20;999.90;;;;;;;;;;4998045;28;20030;-78
2021/09/17 12:46:33;;;;;;;1241.50;999.90;;;;;;;;;;5002636;28;20036;-79
2021/09/17 12:49:01;;;;;;;1232.65;999.90;;;;;;;;;;5004017;28;20029;-78
2021/09/17 12:51:28;;;;;;;1239.32;999.90;;;;;;;;;;5006898;28;20029;-80
2021/09/17 12:53:58;;;;;;;1233.80;999.90;;;;;;;;;;5006458;28;20061;-78
2021/09/17 12:56:24;;;;;;;1239.07;999.90;;;;;;;;;;5003203;28;20030;-78
2021/09/17 12:59:07;;;;;;;1240.25;999.90;;;;;;;;;;5001585;28;20108;-79
2021/09/17 13:01:33;;;;;;;1241.60;999.90;;;;;;;;;;5006244;28;20048;-79
2021/09/17 13:03:59;;;;;;;1234.70;999.90;;;;;;;;;;5005456;28;20030;-80
2021/09/17 13:06:25;;;;;;;1241.05;999.90;;;;;;;;;;5004449;28;20500;-79
2021/09/17 13:08:53;;;;;;;1233.65;999.90;;;;;;;;;;5007858;28;20429;-78
2021/09/17 13:11:22;;;;;;;1231.07;999.90;;;;;;;;;;5022930;28;20046;-79
2021/09/17 13:13:48;;;;;;;1226.22;999.90;;;;;;;;;;5004834;28;20430;-79
2021/09/17 13:16:16;;;;;;;1226.22;999.90;;;;;;;;;;5008019;28;20516;-79
2021/09/17 13:18:42;;;;;;;1216.57;999.90;;;;;;;;;;5005620;28;20504;-78
2021/09/17 13:21:08;;;;;;;1216.28;999.90;;;;;;;;;;5005631;28;20478;-79
2021/09/17 13:23:34;;;;;;;1205.22;999.90;;;;;;;;;;5005264;28;20482;-80
2021/09/17 13:26:00;;;;;;;1210.03;999.90;;;;;;;;;;5001250;28;20029;-77
2021/09/17 13:28:26;;;;;;;1205.70;999.90;;;;;;;;;;5003168;28;20036;-80
2021/09/17 13:30:52;;;;;;;1204.82;999.90;;;;;;;;;;5005456;28;20025;-79
2021/09/17 13:33:19;;;;;;;1187.70;999.90;;;;;;;;;;5006436;28;20026;-79
2021/09/17 13:35:46;;;;;;;1195.30;999.90;;;;;;;;;;5005877;28;20113;-79
2021/09/17 13:38:13;;;;;;;1194.10;999.90;;;;;;;;;;5007603;28;20033;-80
2021/09/17 13:40:40;;;;;;;1194.10;999.90;;;;;;;;;;5002829;28;20050;-79
2021/09/17 13:43:06;;;;;;;1186.90;999.90;;;;;;;;;;5003115;28;20515;-79
2021/09/17 13:45:33;;;;;;;1182.03;999.90;;;;;;;;;;5005816;28;20034;-79
2021/09/17 13:48:00;;;;;;;1186.30;999.90;;;;;;;;;;4996914;28;20026;-79